OHIHQ EFHN-EFKG

Flight info

Callsign OHIHQ
Flight time N/A
Altitude 2000
Route VFR EFHN RIRIP EFKG
Aircraft DV20/L-V/N

Departure

Time N/A
Airport Hanko Airfield (EFHN)

Arrival

Time 2026-05-04 18:01
Airport Kumlinge Airfield (EFKG)
Time Latitude Longitude Altitude Speed Heading
2026-05-04 17:40 60.13263 21.74306 1720 ft 103 kts 294°
2026-05-04 17:41 60.13639 21.73081 1662 ft 103 kts 294°
2026-05-04 17:41 60.14013 21.71847 1592 ft 103 kts 292°
2026-05-04 17:41 60.14346 21.70649 1693 ft 94 kts 291°
2026-05-04 17:41 60.14662 21.69511 1755 ft 93 kts 291°
2026-05-04 17:42 60.14972 21.68444 1910 ft 85 kts 290°
2026-05-04 17:42 60.15241 21.67370 1977 ft 88 kts 289°
2026-05-04 17:42 60.15509 21.66259 2026 ft 91 kts 288°
2026-05-04 17:42 60.15738 21.65071 2049 ft 91 kts 283°
2026-05-04 17:43 60.15956 21.63866 2048 ft 93 kts 283°
2026-05-04 17:43 60.16125 21.62620 2036 ft 93 kts 279°
2026-05-04 17:43 60.16288 21.61373 2038 ft 93 kts 280°
2026-05-04 17:43 60.16468 21.60134 2043 ft 92 kts 282°
2026-05-04 17:44 60.16685 21.58912 2037 ft 94 kts 285°
2026-05-04 17:44 60.16920 21.57668 1964 ft 97 kts 284°
2026-05-04 17:44 60.17144 21.56374 1911 ft 98 kts 284°
2026-05-04 17:44 60.17350 21.55063 1809 ft 100 kts 282°
2026-05-04 17:45 60.17564 21.53740 1743 ft 100 kts 283°
2026-05-04 17:45 60.17807 21.52460 1731 ft 97 kts 287°
2026-05-04 17:45 60.18056 21.51241 1798 ft 93 kts 285°
2026-05-04 17:45 60.18289 21.50044 1811 ft 94 kts 284°
2026-05-04 17:46 60.18471 21.48783 1816 ft 94 kts 278°
2026-05-04 17:46 60.18625 21.47497 1816 ft 95 kts 279°
2026-05-04 17:46 60.18783 21.46214 1828 ft 93 kts 276°
2026-05-04 17:46 60.18908 21.44959 1866 ft 91 kts 277°
2026-05-04 17:47 60.19059 21.43764 1966 ft 87 kts 280°
2026-05-04 17:47 60.19207 21.42534 1963 ft 90 kts 280°
2026-05-04 17:47 60.19364 21.41371 2067 ft 86 kts 279°
2026-05-04 17:47 60.19498 21.40165 2070 ft 91 kts 277°
2026-05-04 17:48 60.19628 21.38891 2022 ft 95 kts 280°
2026-05-04 17:48 60.19785 21.37595 2027 ft 95 kts 279°
2026-05-04 17:48 60.19930 21.36284 1963 ft 96 kts 279°
2026-05-04 17:48 60.20076 21.34983 1968 ft 94 kts 279°
2026-05-04 17:49 60.20215 21.33720 1999 ft 92 kts 278°
2026-05-04 17:49 60.20342 21.32452 1985 ft 93 kts 277°
2026-05-04 17:49 60.20462 21.31154 1896 ft 98 kts 277°
2026-05-04 17:49 60.20615 21.29710 1605 ft 108 kts 278°
2026-05-04 17:50 60.20747 21.28338 1729 ft 87 kts 274°
2026-05-04 17:50 60.20853 21.27159 1823 ft 85 kts 275°
2026-05-04 17:50 60.20972 21.25983 1883 ft 87 kts 277°
2026-05-04 17:50 60.21075 21.24794 1959 ft 87 kts 275°
2026-05-04 17:51 60.21182 21.23565 1963 ft 91 kts 276°
2026-05-04 17:51 60.21319 21.22280 1891 ft 96 kts 277°
2026-05-04 17:51 60.21502 21.21089 2034 ft 87 kts 285°
2026-05-04 17:51 60.21751 21.19929 2011 ft 94 kts 287°
2026-05-04 17:52 60.22050 21.18745 1994 ft 96 kts 290°
2026-05-04 17:52 60.22265 21.17506 2000 ft 93 kts 278°
2026-05-04 17:52 60.22397 21.16219 1919 ft 99 kts 277°
2026-05-04 17:52 60.22509 21.14916 1989 ft 89 kts 276°
2026-05-04 17:53 60.22598 21.13679 2007 ft 91 kts 274°
2026-05-04 17:53 60.22664 21.12370 1928 ft 97 kts 272°
2026-05-04 17:53 60.22713 21.10953 1806 ft 95 kts 270°
2026-05-04 17:53 60.22761 21.09656 1788 ft 95 kts 274°
2026-05-04 17:54 60.22855 21.08355 1746 ft 96 kts 275°
2026-05-04 17:54 60.22997 21.07057 1738 ft 95 kts 281°
2026-05-04 17:54 60.23207 21.05789 1681 ft 97 kts 284°
2026-05-04 17:54 60.23422 21.04540 1662 ft 95 kts 283°
2026-05-04 17:55 60.23649 21.03303 1669 ft 92 kts 283°
2026-05-04 17:55 60.23854 21.02053 1648 ft 95 kts 281°
2026-05-04 17:55 60.24031 21.00766 1631 ft 96 kts 281°
2026-05-04 17:55 60.24184 20.99456 1572 ft 98 kts 277°
2026-05-04 17:56 60.24312 20.98094 1504 ft 97 kts 276°
2026-05-04 17:56 60.24410 20.96838 1600 ft 89 kts 274°
2026-05-04 17:56 60.24498 20.95491 1402 ft 103 kts 275°
2026-05-04 17:56 60.24610 20.94048 1274 ft 106 kts 275°
2026-05-04 17:57 60.24700 20.92516 1062 ft 110 kts 272°
2026-05-04 17:57 60.24769 20.91072 1040 ft 102 kts 270°
2026-05-04 17:57 60.24784 20.89675 1051 ft 98 kts 266°
2026-05-04 17:57 60.24806 20.88294 1040 ft 99 kts 271°
2026-05-04 17:58 60.24862 20.86921 1021 ft 101 kts 271°
2026-05-04 17:58 60.24888 20.85475 925 ft 106 kts 265°
2026-05-04 17:58 60.24908 20.83998 845 ft 110 kts 269°
2026-05-04 17:58 60.24912 20.82503 560 ft 101 kts 264°
2026-05-04 17:59 60.24867 20.81203 392 ft 88 kts 260°
2026-05-04 17:59 60.24795 20.80028 323 ft 72 kts 246°
2026-05-04 17:59 60.24030 20.79640 331 ft 77 kts 160°
2026-05-04 18:00 60.23573 20.80166 353 ft 66 kts 159°
2026-05-04 18:00 60.23237 20.80690 413 ft 65 kts 124°
2026-05-04 18:00 60.23535 20.81564 260 ft 84 kts
2026-05-04 18:00 60.23896 20.81045 124 ft 62 kts 308°
2026-05-04 18:01 60.24279 20.80639 16 ft 60 kts 323°
2026-05-04 18:01 60.24575 20.80343 9 ft 32 kts 335°
2026-05-04 18:01 60.24694 20.80235 9 ft 8 kts 329°
2026-05-04 18:02 60.24696 20.80068 8 ft 6 kts 283°
2026-05-04 18:02 60.24703 20.80054 8 ft 0 kts 19°